Time;durP1;ratioP1;P1;durP2;ratioP2;P2;SDS_P1;SDS_P2;PMS_P1;PMS_P2;Temp;Humidity;BMP_temperature;BMP_pressure;BME280_temperature;BME280_humidity;BME280_pressure;Samples;Min_cycle;Max_cycle;Signal;HPM_P1;HPM_P2
2021/01/02 00:00:10;;;;;;;27.17;11.43;;;;;;;;;;6270004;22;20042;-89
2021/01/02 00:02:47;;;;;;;34.58;12.80;;;;;;;;;;6270369;22;20012;-89
2021/01/02 00:06:10;;;;;;;24.35;11.60;;;;;;;;;;6246233;22;20008;-88
2021/01/02 00:08:54;;;;;;;25.15;12.20;;;5.10;99.90;;;;;;6291539;22;20053;-89
2021/01/02 00:11:33;;;;;;;29.52;13.88;;;;;;;;;;6293584;22;20019;-88
2021/01/02 00:14:26;;;;;;;24.95;11.30;;;5.20;99.90;;;;;;6264690;22;20015;-87
2021/01/02 00:17:13;;;;;;;20.27;9.95;;;5.10;99.90;;;;;;6287742;22;20549;-87
2021/01/02 00:19:57;;;;;;;23.00;11.02;;;5.10;99.90;;;;;;6288469;22;20023;-89
2021/01/02 00:22:47;;;;;;;21.35;9.15;;;5.20;99.90;;;;;;6286900;22;20308;-88
2021/01/02 00:25:16;;;;;;;27.98;11.35;;;;;;;;;;6265101;22;20019;-89
2021/01/02 00:28:39;;;;;;;29.73;11.20;;;5.20;99.90;;;;;;6265816;22;20023;-88
2021/01/02 00:31:46;;;;;;;24.58;10.73;;;;;;;;;;6234971;22;20016;-89
2021/01/02 00:34:53;;;;;;;19.33;9.80;;;5.10;99.90;;;;;;6237358;22;20022;-89
2021/01/02 00:37:38;;;;;;;26.77;9.97;;;5.10;99.90;;;;;;6238489;22;20477;-88
2021/01/02 00:40:20;;;;;;;20.83;11.38;;;5.10;99.90;;;;;;6239168;22;20267;-87
2021/01/02 00:42:55;;;;;;;19.70;9.73;;;;;;;;;;6261271;22;20015;-88
2021/01/02 00:45:26;;;;;;;26.40;10.43;;;5.10;99.90;;;;;;6281614;22;20344;-86
2021/01/02 00:47:56;;;;;;;25.13;11.40;;;;;;;;;;6281999;22;20020;-86
2021/01/02 00:50:29;;;;;;;29.85;12.25;;;;;;;;;;6201203;22;20022;-86
2021/01/02 00:53:05;;;;;;;;;;;5.30;99.90;;;;;;6224675;22;20439;-85
2021/01/02 00:55:39;;;;;;;22.88;12.60;;;;;;;;;;6227195;22;19922;-86
2021/01/02 00:58:48;;;;;;;24.02;10.88;;;5.10;99.90;;;;;;6250848;22;20023;-85
2021/01/02 01:01:25;;;;;;;24.98;12.07;;;5.10;99.90;;;;;;6251732;22;20020;-86
2021/01/02 01:04:26;;;;;;;20.30;10.60;;;4.90;99.90;;;;;;6203125;22;20022;-86
2021/01/02 01:06:56;;;;;;;28.50;12.82;;;;;;;;;;6201530;22;20019;-86
2021/01/02 01:09:39;;;;;;;21.27;10.80;;;5.00;99.90;;;;;;6253852;22;20015;-86
2021/01/02 01:12:09;;;;;;;21.70;12.38;;;5.00;99.90;;;;;;6252790;22;20015;-86
2021/01/02 01:14:38;;;;;;;22.65;10.93;;;5.00;99.90;;;;;;6203140;22;20020;-86
2021/01/02 01:17:22;;;;;;;26.65;11.70;;;5.00;99.90;;;;;;6200414;22;20022;-88
2021/01/02 01:20:00;;;;;;;23.55;11.10;;;5.10;99.90;;;;;;6252032;22;20034;-87
2021/01/02 01:22:40;;;;;;;26.43;12.87;;;5.10;99.90;;;;;;6252568;22;20550;-85
2021/01/02 01:25:26;;;;;;;25.17;12.30;;;5.00;99.90;;;;;;6253001;22;20020;-86
2021/01/02 01:28:05;;;;;;;25.33;12.18;;;5.10;99.90;;;;;;6228329;22;20016;-87
2021/01/02 01:30:38;;;;;;;17.15;8.32;;;;;;;;;;6228195;22;20018;-87
2021/01/02 01:33:08;;;;;;;26.95;10.30;;;;;;;;;;6254560;22;20023;-87
2021/01/02 01:35:43;;;;;;;22.70;12.48;;;5.00;99.90;;;;;;6229860;22;20022;-87
2021/01/02 01:38:16;;;;;;;19.83;10.20;;;5.00;99.90;;;;;;6254885;22;20016;-85
2021/01/02 01:40:55;;;;;;;22.63;11.38;;;5.10;99.90;;;;;;6224713;23;20020;-86
2021/01/02 01:43:49;;;;;;;21.17;11.02;;;5.10;99.90;;;;;;6250068;23;20016;-86
2021/01/02 01:46:24;;;;;;;26.40;10.98;;;5.00;99.90;;;;;;6184860;23;20024;-87
2021/01/02 01:49:09;;;;;;;22.38;10.80;;;5.10;99.90;;;;;;6246951;23;20019;-86
2021/01/02 01:52:02;;;;;;;21.88;9.73;;;5.00;99.90;;;;;;6248021;23;20023;-87
2021/01/02 01:54:50;;;;;;;23.98;10.48;;;;;;;;;;6249241;23;20535;-86
2021/01/02 01:57:29;;;;;;;16.95;9.48;;;;;;;;;;6249642;23;20505;-86
2021/01/02 01:59:57;;;;;;;25.77;11.73;;;;;;;;;;6248143;23;20016;-87
2021/01/02 02:02:46;;;;;;;25.17;9.45;;;5.10;99.90;;;;;;6248633;23;20020;-85
2021/01/02 02:05:17;;;;;;;23.95;10.90;;;5.10;99.90;;;;;;6175556;23;20020;-87
2021/01/02 02:08:02;;;;;;;;;;;5.00;99.90;;;;;;6253112;23;20020;-86
2021/01/02 02:10:30;;;;;;;22.20;11.55;;;;;;;;;;6199650;23;19934;-86
2021/01/02 02:13:15;;;;;;;18.55;9.57;;;4.90;99.90;;;;;;6200592;23;20030;-86
2021/01/02 02:15:47;;;;;;;19.40;9.20;;;;;;;;;;6221327;23;20013;-86
2021/01/02 02:18:28;;;;;;;20.95;11.07;;;5.10;99.90;;;;;;6247522;23;20020;-87
2021/01/02 02:20:58;;;;;;;20.42;10.15;;;5.00;99.90;;;;;;6252088;23;20016;-87
2021/01/02 02:23:41;;;;;;;21.55;10.45;;;5.20;99.90;;;;;;6220850;23;20427;-87
2021/01/02 02:26:09;;;;;;;26.90;9.20;;;;;;;;;;6222449;23;20023;-88
2021/01/02 02:29:06;;;;;;;24.67;11.02;;;5.10;99.90;;;;;;6246847;23;20020;-87
2021/01/02 02:31:41;;;;;;;22.90;9.30;;;;;;;;;;6229486;23;20352;-87
2021/01/02 02:34:12;;;;;;;23.92;9.43;;;5.10;99.90;;;;;;6250749;23;20026;-88
2021/01/02 02:36:42;;;;;;;24.47;8.90;;;;;;;;;;6250973;23;20015;-87
2021/01/02 02:39:15;;;;;;;23.63;10.32;;;5.00;99.90;;;;;;6232542;22;20030;-86
2021/01/02 02:41:48;;;;;;;22.63;10.27;;;4.90;99.90;;;;;;6279910;22;20016;-87
2021/01/02 02:44:29;;;;;;;18.00;9.52;;;4.90;99.90;;;;;;6227490;22;20351;-86
2021/01/02 02:47:01;;;;;;;25.45;10.50;;;4.90;99.90;;;;;;6252176;22;20016;-87
2021/01/02 02:49:34;;;;;;;24.65;10.13;;;4.90;99.90;;;;;;6253294;22;20409;-86
2021/01/02 02:52:33;;;;;;;22.98;10.95;;;4.80;99.90;;;;;;6253340;22;20030;-86
2021/01/02 02:55:01;;;;;;;24.45;10.57;;;3.10;99.90;;;;;;6253980;22;20023;-86
2021/01/02 02:57:33;;;;;;;24.73;9.90;;;4.80;99.90;;;;;;6229497;22;20474;-87
2021/01/02 03:00:03;;;;;;;23.42;10.50;;;4.90;99.90;;;;;;6279757;22;20031;-86
2021/01/02 03:02:34;;;;;;;44.30;12.07;;;4.80;99.90;;;;;;6255899;22;20016;-86
2021/01/02 03:05:05;;;;;;;;;;;4.90;99.90;;;;;;6255328;22;20019;-86
2021/01/02 03:07:32;;;;;;;20.15;9.65;;;;;;;;;;6253786;22;19926;-86
2021/01/02 03:10:00;;;;;;;21.70;8.95;;;;;;;;;;6280804;22;20020;-86
2021/01/02 03:12:28;;;;;;;18.38;9.38;;;;;;;;;;6280744;22;20018;-86
2021/01/02 03:14:59;;;;;;;24.27;11.63;;;;;;;;;;6254784;22;20030;-85
2021/01/02 03:17:27;;;;;;;19.17;8.75;;;;;;;;;;6254902;22;20026;-85
2021/01/02 03:19:55;;;;;;;15.85;7.82;;;;;;;;;;6256947;22;20027;-86
2021/01/02 03:22:24;;;;;;;19.88;9.65;;;;;;;;;;6279464;22;20008;-86
2021/01/02 03:24:52;;;;;;;27.05;10.45;;;;;;;;;;6254335;22;20020;-86
2021/01/02 03:27:21;;;;;;;24.25;11.30;;;;;;;;;;6278905;22;20022;-85
2021/01/02 03:29:50;;;;;;;26.13;10.52;;;;;;;;;;6255414;22;20344;-85
2021/01/02 03:32:18;;;;;;;19.60;10.02;;;;;;;;;;6254127;22;20020;-84
2021/01/02 03:34:46;;;;;;;17.35;8.73;;;;;;;;;;6277378;22;20121;-85
2021/01/02 03:37:14;;;;;;;31.27;12.80;;;;;;;;;;6279231;22;20019;-86
2021/01/02 03:39:42;;;;;;;24.10;10.30;;;;;;;;;;6253960;22;20023;-87
2021/01/02 03:42:10;;;;;;;22.38;12.00;;;4.80;99.90;;;;;;6279840;22;20022;-88
2021/01/02 03:44:38;;;;;;;19.38;8.32;;;;;;;;;;6254223;22;20027;-87
2021/01/02 03:47:08;;;;;;;19.90;10.30;;;4.80;99.90;;;;;;6254268;22;20020;-86
2021/01/02 03:49:36;;;;;;;23.35;10.20;;;;;;;;;;6230049;22;20019;-86
2021/01/02 03:52:05;;;;;;;21.15;10.05;;;;;;;;;;6280658;22;20019;-87
2021/01/02 03:54:33;;;;;;;19.83;9.20;;;4.80;99.90;;;;;;6279811;22;20023;-87
2021/01/02 03:57:03;;;;;;;17.70;8.47;;;;;;;;;;6281799;22;20026;-87
2021/01/02 03:59:33;;;;;;;20.98;7.75;;;;;;;;;;6278670;22;20015;-88
2021/01/02 04:02:01;;;;;;;23.25;9.80;;;;;;;;;;6254966;22;20020;-86
2021/01/02 04:04:29;;;;;;;21.92;9.35;;;;;;;;;;6280962;22;20019;-87
2021/01/02 04:06:56;;;;;;;18.25;9.40;;;;;;;;;;6279252;22;20015;-87
2021/01/02 04:09:25;;;;;;;16.42;8.23;;;;;;;;;;6280484;22;20015;-86
2021/01/02 04:11:53;;;;;;;23.90;10.40;;;;;;;;;;6255475;22;20012;-85
2021/01/02 04:14:21;;;;;;;22.58;9.70;;;;;;;;;;6259314;22;20029;-85
2021/01/02 04:16:48;;;;;;;21.15;9.68;;;;;;;;;;6286275;22;20012;-85
2021/01/02 04:19:16;;;;;;;19.35;9.38;;;;;;;;;;6285904;22;20016;-89
2021/01/02 04:21:46;;;;;;;22.25;10.07;;;4.70;99.90;;;;;;6283179;22;20367;-87
2021/01/02 04:24:13;;;;;;;28.63;11.20;;;;;;;;;;6252637;22;20019;-86
2021/01/02 04:26:42;;;;;;;20.33;9.45;;;;;;;;;;6251818;22;20020;-85
2021/01/02 04:29:09;;;;;;;18.88;9.20;;;;;;;;;;6252642;22;20019;-86
2021/01/02 04:31:39;;;;;;;21.63;10.38;;;4.80;99.90;;;;;;6253309;22;20030;-86
2021/01/02 04:34:08;;;;;;;23.70;10.65;;;4.90;99.90;;;;;;6252701;22;20022;-86
2021/01/02 04:36:37;;;;;;;26.97;12.60;;;4.90;99.90;;;;;;6279876;22;20016;-85
2021/01/02 04:39:06;;;;;;;17.35;9.15;;;4.80;99.90;;;;;;6253810;22;20028;-87
2021/01/02 04:41:36;;;;;;;17.73;9.38;;;4.80;99.90;;;;;;6280140;22;20305;-87
2021/01/02 04:44:04;;;;;;;21.73;8.50;;;;;;;;;;6285322;22;20022;-85
2021/01/02 04:46:32;;;;;;;16.92;8.40;;;;;;;;;;6252843;22;20024;-84
2021/01/02 04:49:00;;;;;;;18.88;9.77;;;;;;;;;;6277792;22;20020;-85
2021/01/02 04:51:28;;;;;;;29.27;9.55;;;;;;;;;;6279475;22;20016;-87
2021/01/02 04:54:00;;;;;;;21.85;7.78;;;4.80;99.90;;;;;;6279321;22;20015;-86
2021/01/02 04:56:28;;;;;;;;;;;4.90;99.90;;;;;;6253677;22;20015;-84
2021/01/02 04:59:01;;;;;;;19.65;8.63;;;4.80;99.90;;;;;;6254442;22;19918;-87
2021/01/02 05:01:31;;;;;;;18.80;7.90;;;4.70;99.90;;;;;;6225141;22;20027;-84
2021/01/02 05:03:59;;;;;;;21.30;7.82;;;;;;;;;;6225853;22;20023;-86
2021/01/02 05:06:27;;;;;;;20.83;9.95;;;;;;;;;;6283051;22;20025;-86
2021/01/02 05:08:55;;;;;;;17.33;7.78;;;;;;;;;;6284106;22;20118;-85
2021/01/02 05:11:24;;;;;;;23.15;8.85;;;;;;;;;;6259661;22;20029;-86
2021/01/02 05:14:00;;;;;;;17.88;7.93;;;4.60;99.90;;;;;;6260924;22;20026;-85
2021/01/02 05:16:41;;;;;;;19.20;9.55;;;4.70;99.90;;;;;;6286783;22;20034;-85
2021/01/02 05:19:17;;;;;;;16.23;8.93;;;;;;;;;;6261388;22;20015;-85
2021/01/02 05:21:48;;;;;;;18.10;7.60;;;4.90;99.90;;;;;;6288930;22;20019;-85
2021/01/02 05:24:16;;;;;;;;;;;4.80;99.90;;;;;;6289114;22;20016;-85
2021/01/02 05:27:06;;;;;;;15.50;7.25;;;4.70;99.90;;;;;;6290612;22;20303;-86
2021/01/02 05:29:34;;;;;;;27.58;9.65;;;;;;;;;;6291905;22;20015;-85
2021/01/02 05:32:03;;;;;;;20.35;8.27;;;;;;;;;;6290062;22;20030;-86
2021/01/02 05:34:33;;;;;;;18.92;10.05;;;4.90;99.90;;;;;;6289599;22;20034;-86
2021/01/02 05:37:08;;;;;;;24.38;8.55;;;4.80;99.90;;;;;;6291114;22;20026;-85
2021/01/02 05:39:43;;;;;;;19.23;8.48;;;4.80;99.90;;;;;;6293446;22;20023;-85
2021/01/02 05:42:14;;;;;;;22.58;8.55;;;4.80;99.90;;;;;;6266143;22;20026;-86
2021/01/02 05:44:44;;;;;;;19.60;8.23;;;;;;;;;;6263793;22;20016;-85
2021/01/02 05:47:13;;;;;;;15.25;7.20;;;4.70;99.90;;;;;;6262964;22;20509;-86
2021/01/02 05:49:45;;;;;;;21.17;9.40;;;4.70;99.90;;;;;;6209419;22;20026;-86
2021/01/02 05:52:15;;;;;;;19.05;8.85;;;;;;;;;;6285927;22;20015;-86
2021/01/02 05:54:46;;;;;;;16.40;7.55;;;;;;;;;;6285610;22;20016;-86
2021/01/02 05:57:23;;;;;;;20.13;9.60;;;4.80;99.90;;;;;;6257800;22;20011;-85
2021/01/02 05:59:54;;;;;;;15.38;8.38;;;4.80;99.90;;;;;;6256312;22;20022;-86
2021/01/02 06:02:27;;;;;;;13.32;7.22;;;4.80;99.90;;;;;;6289463;22;20024;-86
2021/01/02 06:04:55;;;;;;;23.55;8.93;;;;;;;;;;6283376;22;20026;-87
2021/01/02 06:07:32;;;;;;;13.10;6.60;;;4.80;99.90;;;;;;6234351;22;20038;-85
2021/01/02 06:10:01;;;;;;;16.17;7.70;;;4.80;99.90;;;;;;6257014;22;20019;-87
2021/01/02 06:12:36;;;;;;;13.85;6.63;;;;;;;;;;6279388;22;20012;-85
2021/01/02 06:15:08;;;;;;;14.63;6.55;;;5.00;99.90;;;;;;6284038;22;20019;-86
2021/01/02 06:17:38;;;;;;;20.60;8.27;;;4.80;99.90;;;;;;6231012;22;20106;-86
2021/01/02 06:20:06;;;;;;;14.52;8.85;;;;;;;;;;6229618;22;20473;-86
2021/01/02 06:22:35;;;;;;;17.10;8.18;;;;;;;;;;6280121;22;20011;-87
2021/01/02 06:25:05;;;;;;;13.25;7.68;;;4.70;99.90;;;;;;6252572;22;20024;-86
2021/01/02 06:27:33;;;;;;;17.67;8.32;;;;;;;;;;6228973;22;20020;-85
2021/01/02 06:30:02;;;;;;;17.55;7.22;;;;;;;;;;6253976;22;20028;-86
2021/01/02 06:32:30;;;;;;;13.32;6.03;;;;;;;;;;6282791;22;20015;-87
2021/01/02 06:35:10;;;;;;;17.23;7.75;;;;;;;;;;6251965;22;20493;-87
2021/01/02 06:37:48;;;;;;;16.02;6.72;;;;;;;;;;6229319;22;20030;-86
2021/01/02 06:40:20;;;;;;;15.18;7.47;;;;;;;;;;6255334;22;20034;-87
2021/01/02 06:42:53;;;;;;;22.23;7.93;;;;;;;;;;6281235;22;20474;-87
2021/01/02 06:45:37;;;;;;;12.65;7.40;;;;;;;;;;6287330;22;20020;-86
2021/01/02 06:48:31;;;;;;;16.83;6.55;;;4.80;99.90;;;;;;6234284;22;20019;-86
2021/01/02 06:51:25;;;;;;;18.05;7.13;;;5.90;99.90;;;;;;6271948;22;20015;-86
2021/01/02 06:53:59;;;;;;;16.70;7.15;;;;;;;;;;6286013;22;20024;-88
2021/01/02 06:56:35;;;;;;;12.35;6.75;;;4.50;99.90;;;;;;6263409;22;20016;-87
2021/01/02 06:59:05;;;;;;;16.63;6.65;;;;;;;;;;6291326;22;20022;-85
2021/01/02 07:01:49;;;;;;;13.30;7.13;;;4.50;99.90;;;;;;6281389;22;20019;-87
2021/01/02 07:04:39;;;;;;;36.10;7.80;;;4.60;99.90;;;;;;6286897;22;20253;-87
2021/01/02 07:07:10;;;;;;;13.90;7.10;;;;;;;;;;6257347;22;20030;-86
2021/01/02 07:10:18;;;;;;;13.75;6.70;;;4.50;99.90;;;;;;6259282;22;20069;-86
2021/01/02 07:13:13;;;;;;;15.00;7.15;;;4.60;99.90;;;;;;6288702;22;20024;-87
2021/01/02 07:15:49;;;;;;;15.95;7.03;;;;;;;;;;6258563;22;20026;-87
2021/01/02 07:18:27;;;;;;;12.60;7.05;;;;;;;;;;6239984;22;20012;-85
2021/01/02 07:20:57;;;;;;;22.10;7.18;;;;;;;;;;6270399;22;20383;-85
2021/01/02 07:23:53;;;;;;;14.95;6.88;;;4.50;99.90;;;;;;6290396;22;20015;-85
2021/01/02 07:26:22;;;;;;;10.13;5.95;;;;;;;;;;6260850;22;20030;-85
2021/01/02 07:29:17;;;;;;;16.33;7.25;;;4.50;99.90;;;;;;6289108;22;20011;-85
2021/01/02 07:31:48;;;;;;;15.82;7.53;;;;;;;;;;6288433;22;20019;-85
2021/01/02 07:34:23;;;;;;;13.18;6.95;;;4.50;99.90;;;;;;6289420;22;20042;-85
2021/01/02 07:37:01;;;;;;;9.90;5.97;;;4.60;99.90;;;;;;6260147;22;20024;-89
2021/01/02 07:39:37;;;;;;;8.80;5.35;;;;;;;;;;6261730;22;20024;-88
2021/01/02 07:42:06;;;;;;;11.88;6.10;;;;;;;;;;6260630;22;20026;-87
2021/01/02 07:44:40;;;;;;;13.52;8.10;;;4.40;99.90;;;;;;6288220;22;20016;-88
2021/01/02 07:47:08;;;;;;;14.32;7.45;;;;;;;;;;6261611;22;20023;-87
2021/01/02 07:49:37;;;;;;;12.13;6.55;;;;;;;;;;6263492;22;20020;-86
2021/01/02 07:52:08;;;;;;;18.90;9.75;;;4.30;99.90;;;;;;6240864;22;20019;-89
2021/01/02 07:54:40;;;;;;;14.55;6.40;;;4.30;99.90;;;;;;6264952;22;20020;-90
2021/01/02 07:57:10;;;;;;;10.65;5.40;;;;;;;;;;6266230;22;20031;-89
2021/01/02 07:59:41;;;;;;;12.05;6.07;;;;;;;;;;6290302;22;20015;-87
2021/01/02 08:02:26;;;;;;;9.70;5.95;;;;;;;;;;6286816;22;20020;-88
2021/01/02 08:05:00;;;;;;;12.43;6.63;;;;;;;;;;6261084;22;20015;-87
2021/01/02 08:07:29;;;;;;;12.80;5.50;;;;;;;;;;6263223;22;20038;-87
2021/01/02 08:10:03;;;;;;;8.43;5.10;;;4.10;99.90;;;;;;6239462;22;20022;-88
2021/01/02 08:12:34;;;;;;;10.93;7.32;;;;;;;;;;6263668;22;20466;-89
2021/01/02 08:15:52;;;;;;;9.18;5.38;;;4.20;99.90;;;;;;6302740;22;20024;-86
2021/01/02 08:18:21;;;;;;;10.50;4.50;;;;;;;;;;6288379;22;20012;-87
2021/01/02 08:21:00;;;;;;;8.77;4.10;;;4.30;99.90;;;;;;6213526;22;20016;-88
2021/01/02 08:23:34;;;;;;;6.88;4.00;;;;;;;;;;6288929;22;20025;-87
2021/01/02 08:26:04;;;;;;;7.10;4.03;;;;;;;;;;6290210;22;20023;-89
2021/01/02 08:28:37;;;;;;;12.43;6.20;;;;;;;;;;6239623;22;20026;-90
2021/01/02 08:31:11;;;;;;;5.75;4.25;;;;;;;;;;6288758;22;20019;-87
2021/01/02 08:33:42;;;;;;;11.40;5.38;;;4.20;99.90;;;;;;6236444;22;20026;-87
2021/01/02 08:36:14;;;;;;;9.90;5.72;;;;;;;;;;6238548;22;20026;-87
2021/01/02 08:39:01;;;;;;;12.30;6.60;;;;;;;;;;6285831;22;20030;-88
2021/01/02 08:41:48;;;;;;;11.15;5.63;;;;;;;;;;6242045;22;20018;-87
2021/01/02 08:44:24;;;;;;;8.88;4.63;;;4.20;99.90;;;;;;6295206;22;20020;-88
2021/01/02 08:46:54;;;;;;;11.27;5.63;;;;;;;;;;6244232;22;20024;-88
2021/01/02 08:49:44;;;;;;;9.77;4.78;;;;;;;;;;6240627;22;20030;-86
2021/01/02 08:52:15;;;;;;;10.65;4.40;;;;;;;;;;6241273;22;20019;-89
2021/01/02 08:54:47;;;;;;;6.75;3.83;;;4.20;99.90;;;;;;6241251;22;20011;-87
2021/01/02 08:57:34;;;;;;;10.45;4.38;;;4.30;99.90;;;;;;6266908;22;20023;-86
2021/01/02 09:00:12;;;;;;;8.30;4.32;;;4.10;99.90;;;;;;6290154;22;20026;-87
2021/01/02 09:02:48;;;;;;;10.95;5.38;;;;;;;;;;6289734;22;20038;-88
2021/01/02 09:05:32;;;;;;;10.23;3.75;;;4.30;99.90;;;;;;6284863;22;20020;-87
2021/01/02 09:08:08;;;;;;;7.15;3.72;;;4.30;99.90;;;;;;6229063;22;20022;-86
2021/01/02 09:10:42;;;;;;;3.33;2.85;;;4.10;99.90;;;;;;6256820;22;20039;-87
2021/01/02 09:13:14;;;;;;;6.00;3.00;;;4.30;99.90;;;;;;6278789;22;20030;-88
2021/01/02 09:15:48;;;;;;;5.30;2.80;;;4.40;99.90;;;;;;6254580;22;20023;-86
2021/01/02 09:18:36;;;;;;;8.18;3.95;;;4.20;99.90;;;;;;6253557;22;20619;-86
2021/01/02 09:21:09;;;;;;;17.75;4.45;;;4.40;99.90;;;;;;6261501;22;20023;-87
2021/01/02 09:23:57;;;;;;;7.25;2.90;;;;;;;;;;6238623;22;20019;-88
2021/01/02 09:26:35;;;;;;;8.02;3.05;;;4.30;99.90;;;;;;6263892;22;20478;-86
2021/01/02 09:29:14;;;;;;;3.88;2.45;;;4.10;99.90;;;;;;6287746;22;20020;-86
2021/01/02 09:31:44;;;;;;;5.57;2.70;;;;;;;;;;6264762;22;20030;-88
2021/01/02 09:34:14;;;;;;;2.45;2.25;;;;;;;;;;6264225;22;20019;-86
2021/01/02 09:36:50;;;;;;;7.80;3.03;;;4.30;99.90;;;;;;6289504;22;20202;-87
2021/01/02 09:39:28;;;;;;;6.18;2.47;;;4.20;99.90;;;;;;6284091;22;20023;-87
2021/01/02 09:42:07;;;;;;;4.03;2.15;;;;;;;;;;6236368;22;20019;-87
2021/01/02 09:44:54;;;;;;;5.10;2.20;;;;;;;;;;6262821;22;20027;-87
2021/01/02 09:47:25;;;;;;;2.78;2.30;;;;;;;;;;6239458;22;20012;-85
2021/01/02 09:49:54;;;;;;;8.25;2.97;;;;;;;;;;6263273;22;20022;-87
2021/01/02 09:52:27;;;;;;;7.18;2.35;;;;;;;;;;6241466;22;20022;-87
2021/01/02 09:55:00;;;;;;;2.08;1.92;;;;;;;;;;6263893;22;20020;-87
2021/01/02 09:57:28;;;;;;;3.53;2.28;;;;;;;;;;6238885;22;20497;-87
2021/01/02 09:59:56;;;;;;;5.18;2.25;;;;;;;;;;6263944;22;20012;-87
2021/01/02 10:02:24;;;;;;;6.35;2.63;;;;;;;;;;6263603;22;20038;-86
2021/01/02 10:04:54;;;;;;;6.78;3.40;;;;;;;;;;6261879;22;20019;-86
2021/01/02 10:07:22;;;;;;;7.50;2.75;;;;;;;;;;6261940;22;20020;-87
2021/01/02 10:09:49;;;;;;;4.03;2.30;;;;;;;;;;6262880;22;20030;-87
2021/01/02 10:12:22;;;;;;;4.47;2.22;;;;;;;;;;6266266;22;20012;-86
2021/01/02 10:14:50;;;;;;;8.98;2.50;;;;;;;;;;6262038;22;20016;-87
2021/01/02 10:17:18;;;;;;;2.95;2.28;;;;;;;;;;6260896;22;20020;-87
2021/01/02 10:19:48;;;;;;;5.30;2.22;;;4.90;99.90;;;;;;6285788;22;20022;-87
2021/01/02 10:22:30;;;;;;;7.17;2.43;;;4.80;99.90;;;;;;6284597;22;20219;-88
2021/01/02 10:25:04;;;;;;;8.25;2.33;;;4.60;99.90;;;;;;6233078;22;20123;-87
2021/01/02 10:27:36;;;;;;;4.80;2.50;;;;;;;;;;6230668;22;20015;-87
2021/01/02 10:30:06;;;;;;;6.30;3.63;;;4.80;99.90;;;;;;6256864;22;20020;-88
2021/01/02 10:32:35;;;;;;;1.85;1.67;;;;;;;;;;6256099;22;20034;-87
2021/01/02 10:35:04;;;;;;;2.20;2.10;;;4.80;99.90;;;;;;6256299;22;20024;-88
2021/01/02 10:37:33;;;;;;;;;;;4.80;99.90;;;;;;6258573;22;20024;-86
2021/01/02 10:40:08;;;;;;;4.93;2.45;;;;;;;;;;6280853;22;19952;-87
2021/01/02 10:42:43;;;;;;;2.72;1.98;;;;;;;;;;6257481;22;20016;-87
2021/01/02 10:45:15;;;;;;;3.60;2.47;;;5.20;99.90;;;;;;6257732;22;20030;-86
2021/01/02 10:47:47;;;;;;;3.33;2.53;;;;;;;;;;6230424;22;20016;-86
2021/01/02 10:50:14;;;;;;;3.60;2.20;;;;;;;;;;6282145;22;20023;-87
2021/01/02 10:52:45;;;;;;;6.30;2.65;;;;;;;;;;6230117;22;20018;-87
2021/01/02 10:55:17;;;;;;;3.00;2.17;;;;;;;;;;6256569;22;20019;-87
2021/01/02 10:57:49;;;;;;;9.38;2.83;;;;;;;;;;6278747;22;20023;-87
2021/01/02 11:00:22;;;;;;;6.07;2.38;;;;;;;;;;6255948;22;20180;-86
2021/01/02 11:02:50;;;;;;;5.28;2.50;;;;;;;;;;6253807;22;20018;-85
2021/01/02 11:05:19;;;;;;;4.13;1.90;;;;;;;;;;6255555;22;20024;-86
2021/01/02 11:07:48;;;;;;;4.63;2.95;;;;;;;;;;6230985;22;20022;-86
2021/01/02 11:10:16;;;;;;;15.88;3.40;;;;;;;;;;6256590;22;20020;-87
2021/01/02 11:12:47;;;;;;;5.97;2.63;;;;;;;;;;6229487;22;20039;-86
2021/01/02 11:15:17;;;;;;;2.15;1.92;;;;;;;;;;6283745;22;20028;-86
2021/01/02 11:17:48;;;;;;;8.15;2.60;;;;;;;;;;6258544;22;20016;-86
2021/01/02 11:20:16;;;;;;;3.10;1.83;;;;;;;;;;6254987;22;20016;-86
2021/01/02 11:22:44;;;;;;;6.93;3.13;;;;;;;;;;6253421;22;20026;-87
2021/01/02 11:25:16;;;;;;;3.42;2.53;;;;;;;;;;6228708;22;20019;-86
2021/01/02 11:27:47;;;;;;;2.67;1.98;;;;;;;;;;6204306;22;20015;-87
2021/01/02 11:30:15;;;;;;;2.75;2.05;;;;;;;;;;6284750;22;20016;-89
2021/01/02 11:32:44;;;;;;;6.07;2.00;;;;;;;;;;6282410;22;20427;-86
2021/01/02 11:35:17;;;;;;;4.82;2.03;;;;;;;;;;6230941;22;20026;-86
2021/01/02 11:37:45;;;;;;;3.67;2.40;;;5.40;99.90;;;;;;6206471;22;20015;-87
2021/01/02 11:40:17;;;;;;;7.30;1.98;;;5.60;99.90;;;;;;6232165;23;20020;-86
2021/01/02 11:42:46;;;;;;;8.80;2.58;;;;;;;;;;6224149;23;20030;-87
2021/01/02 11:45:18;;;;;;;2.63;2.33;;;5.40;99.90;;;;;;6248444;23;20067;-86
2021/01/02 11:47:46;;;;;;;5.88;3.65;;;;;;;;;;6196938;23;20031;-86
2021/01/02 11:50:17;;;;;;;5.30;2.40;;;;;;;;;;6249557;23;20012;-86
2021/01/02 11:52:47;;;;;;;3.13;2.40;;;;;;;;;;6222770;23;20020;-85
2021/01/02 11:55:17;;;;;;;5.35;2.95;;;;;;;;;;6197950;23;20017;-86
2021/01/02 11:57:46;;;;;;;5.05;2.70;;;;;;;;;;6246417;23;20028;-86
2021/01/02 12:00:14;;;;;;;5.35;3.15;;;;;;;;;;6248399;23;20012;-86
2021/01/02 12:02:42;;;;;;;3.22;2.40;;;;;;;;;;6221424;23;20027;-86
2021/01/02 12:05:12;;;;;;;9.65;2.67;;;5.70;99.90;;;;;;6197607;23;20012;-86
2021/01/02 12:07:43;;;;;;;5.23;2.37;;;;;;;;;;6223570;23;20016;-86
2021/01/02 12:10:14;;;;;;;8.00;3.17;;;;;;;;;;6224187;23;20123;-88
2021/01/02 12:12:42;;;;;;;6.13;3.10;;;;;;;;;;6198095;23;20016;-87
2021/01/02 12:15:15;;;;;;;7.68;3.65;;;;;;;;;;6199324;23;20019;-87
2021/01/02 12:17:45;;;;;;;5.85;2.72;;;;;;;;;;6223791;23;20027;-87
2021/01/02 12:20:18;;;;;;;5.45;2.60;;;;;;;;;;6199546;23;20020;-85
2021/01/02 12:22:49;;;;;;;3.30;2.47;;;;;;;;;;6225724;23;20027;-85
2021/01/02 12:25:18;;;;;;;5.15;2.95;;;;;;;;;;6226606;23;20023;-87
2021/01/02 12:27:50;;;;;;;7.97;3.10;;;;;;;;;;6251517;23;20024;-88
2021/01/02 12:30:23;;;;;;;7.22;3.28;;;;;;;;;;6206430;23;20012;-88
2021/01/02 12:32:53;;;;;;;6.72;3.25;;;;;;;;;;6226159;23;20024;-87
2021/01/02 12:35:23;;;;;;;11.43;3.67;;;;;;;;;;6178609;23;20012;-88
2021/01/02 12:37:52;;;;;;;5.30;3.63;;;;;;;;;;6250227;23;20020;-89
2021/01/02 12:40:22;;;;;;;4.07;3.45;;;;;;;;;;6253446;22;20020;-88
2021/01/02 12:43:05;;;;;;;9.85;3.38;;;;;;;;;;6208376;23;20020;-89
2021/01/02 12:45:52;;;;;;;5.05;2.90;;;;;;;;;;6215830;23;20016;-90
2021/01/02 12:48:23;;;;;;;6.43;4.65;;;;;;;;;;6235434;23;20016;-89
2021/01/02 12:50:54;;;;;;;8.90;4.25;;;;;;;;;;6233635;23;20020;-90
2021/01/02 12:53:28;;;;;;;6.13;4.13;;;;;;;;;;6208313;23;20016;-89
2021/01/02 12:56:30;;;;;;;12.90;3.80;;;;;;;;;;6258062;23;20028;-89
2021/01/02 12:59:11;;;;;;;5.38;3.53;;;;;;;;;;6260874;23;20027;-89
2021/01/02 13:02:18;;;;;;;9.77;2.92;;;;;;;;;;6128466;23;20030;-87
2021/01/02 13:05:44;;;;;;;6.72;3.30;;;;;;;;;;6133515;23;20038;-89
2021/01/02 13:08:21;;;;;;;8.52;4.38;;;;;;;;;;6141656;23;20021;-90
2021/01/02 13:11:38;;;;;;;4.63;2.78;;;5.50;99.90;;;;;;6099072;23;20022;-90
2021/01/02 13:15:28;;;;;;;7.97;3.75;;;;;;;;;;6122782;23;19997;-89
2021/01/02 13:18:44;;;;;;;8.07;3.95;;;;;;;;;;6280801;22;20010;-91
2021/01/02 13:23:00;;;;;;;9.27;3.67;;;5.50;99.90;;;;;;6287730;22;20012;-92
2021/01/02 13:26:01;;;;;;;8.65;4.65;;;;;;;;;;6295763;22;20026;-89
2021/01/02 13:29:43;;;;;;;5.88;3.42;;;;;;;;;;6209733;23;20031;-91
2021/01/02 13:33:16;;;;;;;7.85;4.97;;;;;;;;;;6216225;23;20008;-89
2021/01/02 13:36:06;;;;;;;13.32;4.05;;;;;;;;;;6164328;23;20011;-90
2021/01/02 13:39:21;;;;;;;5.55;2.92;;;;;;;;;;6215499;23;20064;-92
2021/01/02 13:45:36;;;;;;;11.27;3.90;;;5.90;99.90;;;;;;6235969;23;19911;-89
2021/01/02 13:48:50;;;;;;;7.88;3.38;;;;;;;;;;6201466;23;20056;-89
2021/01/02 14:02:03;;;;;;;7.95;2.10;;;;;;;;;;6277570;22;20068;-91
2021/01/02 14:08:26;;;;;;;5.40;3.08;;;;;;;;;;6245895;22;20440;-92
2021/01/02 14:38:22;;;;;;;3.50;2.50;;;;;;;;;;6330269;22;20060;-91
2021/01/02 14:48:51;;;;;;;1.85;1.67;;;5.70;99.90;;;;;;6298043;22;20019;-90
2021/01/02 15:05:14;;;;;;;8.95;3.15;;;;;;;;;;6333102;22;20083;-91
2021/01/02 15:19:43;;;;;;;2.45;1.92;;;;;;;;;;6279647;22;20027;-90
2021/01/02 15:55:47;;;;;;;7.32;4.05;;;;;;;;;;6244496;22;20019;-89
2021/01/02 16:16:24;;;;;;;12.32;5.25;;;;;;;;;;6299220;22;20007;-90
2021/01/02 16:19:55;;;;;;;16.63;8.48;;;;;;;;;;6270907;22;20019;-90
2021/01/02 16:23:37;;;;;;;11.43;7.85;;;4.20;99.90;;;;;;6273240;22;20018;-91
2021/01/02 16:26:33;;;;;;;8.00;5.20;;;;;;;;;;6253251;22;20026;-91
2021/01/02 16:29:56;;;;;;;9.70;5.63;;;;;;;;;;6271542;22;20006;-92
2021/01/02 17:06:13;;;;;;;;;;;3.30;99.90;;;;;;6251428;22;20056;-90
2021/01/02 17:19:43;;;;;;;12.07;5.05;;;;;;;;;;6301250;22;20008;-87
2021/01/02 17:22:48;;;;;;;;;;;3.50;99.90;;;;;;6293347;22;20020;-87
2021/01/02 17:26:40;;;;;;;10.63;4.68;;;;;;;;;;6293487;22;19913;-91
2021/01/02 17:38:44;;;;;;;10.57;5.35;;;;;;;;;;6283563;22;20023;-91
2021/01/02 17:49:34;;;;;;;12.93;6.57;;;;;;;;;;6283719;22;20019;-92
2021/01/02 17:57:46;;;;;;;14.65;5.80;;;;;;;;;;6256098;22;20136;-91
2021/01/02 18:05:30;;;;;;;17.25;8.32;;;;;;;;;;6331729;22;20025;-91
2021/01/02 18:21:44;;;;;;;14.85;7.55;;;;;;;;;;6097900;23;20074;-91
2021/01/02 18:25:20;;;;;;;15.93;8.88;;;2.90;99.90;;;;;;6115361;23;20082;-92